CheckWX is a tool to help pilots better visualize weather data.  It is not intended as a substitute for an official pre-flight weather briefing.

08:03:40 UTC

LIRN TAF
Naples International Airport
Nápoli, Italy
TAF LIRN 190500Z 1906/2006 VRB04KT 9999 SCT030 BECMG 1908/1910 26010KT BECMG 1918/1920 VRB04KT

Mar-19@
06:00 UTC

Mar-19 @ 06:00 UTC

Mar-19@
08:00 UTC

Mar-19 @ 08:00 UTC

TAF LIRN 190500Z 1906/2006 VRB04KT 9999 SCT030

Expired

Wind
  • Variable at 4 KTS
Cloud Levels
  • Scattered at 3,000' AGL

Mar-19@
08:00 UTC

Mar-19 @ 08:00 UTC

Mar-19@
18:00 UTC

Mar-19 @ 18:00 UTC

BECMG 1908/1910 26010KT

Becoming

Becoming Conditions expected by Tue, Mar 19, 2019 @ 10:00 UTC

Wind
  • 260° at 10 KTS
Cloud Levels
  • Scattered at 3,000' AGL

Mar-19@
18:00 UTC

Mar-19 @ 18:00 UTC

Mar-20@
06:00 UTC

Mar-20 @ 06:00 UTC

BECMG 1918/1920 VRB04KT

Becoming

Becoming Conditions expected by Tue, Mar 19, 2019 @ 20:00 UTC

Wind
  • Variable at 4 KTS
Cloud Levels
  • Scattered at 3,000' AGL